sensor_id;sensor_type;location;lat;lon;timestamp;temperature;humidity
20915;DHT22;10617;52.032;5.298;2023-04-24T00:22:57;9.70;99.90
20915;DHT22;10617;52.032;5.298;2023-04-24T00:26:58;9.70;99.90
20915;DHT22;10617;52.032;5.298;2023-04-24T00:31:02;9.70;99.90
20915;DHT22;10617;52.032;5.298;2023-04-24T00:35:04;9.70;99.90
20915;DHT22;10617;52.032;5.298;2023-04-24T00:39:07;9.70;99.90
20915;DHT22;10617;52.032;5.298;2023-04-24T00:43:11;9.70;99.90
20915;DHT22;10617;52.032;5.298;2023-04-24T00:47:13;9.70;99.90
20915;DHT22;10617;52.032;5.298;2023-04-24T00:51:15;9.70;99.90
20915;DHT22;10617;52.032;5.298;2023-04-24T00:55:17;9.70;99.90
20915;DHT22;10617;52.032;5.298;2023-04-24T00:59:19;9.70;99.90
20915;DHT22;10617;52.032;5.298;2023-04-24T01:03:25;9.70;99.90
20915;DHT22;10617;52.032;5.298;2023-04-24T01:07:27;9.70;99.90
20915;DHT22;10617;52.032;5.298;2023-04-24T01:11:30;9.70;99.90
20915;DHT22;10617;52.032;5.298;2023-04-24T01:15:32;9.70;99.90
20915;DHT22;10617;52.032;5.298;2023-04-24T01:19:33;9.80;99.90
20915;DHT22;10617;52.032;5.298;2023-04-24T01:23:35;9.80;99.90
20915;DHT22;10617;52.032;5.298;2023-04-24T01:27:36;9.80;99.90
20915;DHT22;10617;52.032;5.298;2023-04-24T01:31:39;9.80;99.90
20915;DHT22;10617;52.032;5.298;2023-04-24T01:35:41;9.80;99.90
20915;DHT22;10617;52.032;5.298;2023-04-24T01:39:45;9.70;99.90
20915;DHT22;10617;52.032;5.298;2023-04-24T01:43:47;9.70;99.90
20915;DHT22;10617;52.032;5.298;2023-04-24T01:47:49;9.80;99.90
20915;DHT22;10617;52.032;5.298;2023-04-24T01:51:51;9.80;99.90
20915;DHT22;10617;52.032;5.298;2023-04-24T01:55:52;9.80;99.90
20915;DHT22;10617;52.032;5.298;2023-04-24T01:59:54;9.80;99.90
20915;DHT22;10617;52.032;5.298;2023-04-24T02:03:56;9.80;99.90
20915;DHT22;10617;52.032;5.298;2023-04-24T02:07:57;9.80;99.90
20915;DHT22;10617;52.032;5.298;2023-04-24T02:11:59;9.80;99.90
20915;DHT22;10617;52.032;5.298;2023-04-24T02:16:01;9.80;99.90
20915;DHT22;10617;52.032;5.298;2023-04-24T02:20:04;9.80;99.90
20915;DHT22;10617;52.032;5.298;2023-04-24T02:24:06;9.80;99.90
20915;DHT22;10617;52.032;5.298;2023-04-24T02:28:08;9.80;99.90
20915;DHT22;10617;52.032;5.298;2023-04-24T02:32:09;9.70;99.90
20915;DHT22;10617;52.032;5.298;2023-04-24T02:36:14;9.70;99.90
20915;DHT22;10617;52.032;5.298;2023-04-24T02:40:15;9.70;99.90
20915;DHT22;10617;52.032;5.298;2023-04-24T02:44:17;9.70;99.90
20915;DHT22;10617;52.032;5.298;2023-04-24T02:48:19;9.70;99.90
20915;DHT22;10617;52.032;5.298;2023-04-24T02:52:22;9.70;99.90
20915;DHT22;10617;52.032;5.298;2023-04-24T02:56:23;9.80;99.90
20915;DHT22;10617;52.032;5.298;2023-04-24T03:00:25;9.80;99.90
20915;DHT22;10617;52.032;5.298;2023-04-24T03:04:27;9.70;99.90
20915;DHT22;10617;52.032;5.298;2023-04-24T03:08:29;9.70;99.90
20915;DHT22;10617;52.032;5.298;2023-04-24T03:12:30;9.60;99.90
20915;DHT22;10617;52.032;5.298;2023-04-24T03:16:32;9.50;99.90
20915;DHT22;10617;52.032;5.298;2023-04-24T03:20:34;9.50;99.90
20915;DHT22;10617;52.032;5.298;2023-04-24T03:24:38;9.40;99.90
20915;DHT22;10617;52.032;5.298;2023-04-24T03:28:39;9.40;99.90
20915;DHT22;10617;52.032;5.298;2023-04-24T03:32:42;9.30;99.90
20915;DHT22;10617;52.032;5.298;2023-04-24T03:36:43;9.30;99.90
20915;DHT22;10617;52.032;5.298;2023-04-24T03:40:45;9.30;99.90
20915;DHT22;10617;52.032;5.298;2023-04-24T03:44:47;9.30;99.90
20915;DHT22;10617;52.032;5.298;2023-04-24T03:48:48;9.30;99.90
20915;DHT22;10617;52.032;5.298;2023-04-24T03:52:50;9.30;99.90
20915;DHT22;10617;52.032;5.298;2023-04-24T03:56:51;9.40;99.90
20915;DHT22;10617;52.032;5.298;2023-04-24T04:00:53;9.40;99.90
20915;DHT22;10617;52.032;5.298;2023-04-24T04:04:55;9.40;99.90
20915;DHT22;10617;52.032;5.298;2023-04-24T04:08:57;9.40;99.90
20915;DHT22;10617;52.032;5.298;2023-04-24T04:12:58;9.40;99.90
20915;DHT22;10617;52.032;5.298;2023-04-24T04:17:00;9.40;99.90
20915;DHT22;10617;52.032;5.298;2023-04-24T04:21:02;9.30;99.90
20915;DHT22;10617;52.032;5.298;2023-04-24T04:25:04;9.30;99.90
20915;DHT22;10617;52.032;5.298;2023-04-24T04:29:05;9.40;99.90
20915;DHT22;10617;52.032;5.298;2023-04-24T04:33:08;9.40;99.90
20915;DHT22;10617;52.032;5.298;2023-04-24T04:37:10;9.40;99.90
20915;DHT22;10617;52.032;5.298;2023-04-24T04:41:12;9.40;99.90
20915;DHT22;10617;52.032;5.298;2023-04-24T04:45:14;9.40;99.90
20915;DHT22;10617;52.032;5.298;2023-04-24T04:49:18;9.40;99.90
20915;DHT22;10617;52.032;5.298;2023-04-24T04:53:20;9.40;99.90
20915;DHT22;10617;52.032;5.298;2023-04-24T04:57:21;9.40;99.90
20915;DHT22;10617;52.032;5.298;2023-04-24T05:01:23;9.40;99.90
20915;DHT22;10617;52.032;5.298;2023-04-24T05:05:25;9.50;99.90
20915;DHT22;10617;52.032;5.298;2023-04-24T05:09:27;9.50;99.90
20915;DHT22;10617;52.032;5.298;2023-04-24T05:13:30;9.50;99.90
20915;DHT22;10617;52.032;5.298;2023-04-24T05:17:40;9.50;99.90
20915;DHT22;10617;52.032;5.298;2023-04-24T05:21:42;9.50;99.90
20915;DHT22;10617;52.032;5.298;2023-04-24T05:25:44;9.60;99.90
20915;DHT22;10617;52.032;5.298;2023-04-24T05:29:45;9.60;99.90
20915;DHT22;10617;52.032;5.298;2023-04-24T05:33:47;9.60;99.90
20915;DHT22;10617;52.032;5.298;2023-04-24T05:37:49;9.60;99.90
20915;DHT22;10617;52.032;5.298;2023-04-24T05:41:50;9.60;99.90
20915;DHT22;10617;52.032;5.298;2023-04-24T05:45:52;9.60;99.90
20915;DHT22;10617;52.032;5.298;2023-04-24T05:49:54;9.50;99.90
20915;DHT22;10617;52.032;5.298;2023-04-24T05:53:56;9.50;99.90
20915;DHT22;10617;52.032;5.298;2023-04-24T05:57:58;9.40;99.90
20915;DHT22;10617;52.032;5.298;2023-04-24T06:02:00;9.30;99.90
20915;DHT22;10617;52.032;5.298;2023-04-24T06:06:01;9.20;99.90
20915;DHT22;10617;52.032;5.298;2023-04-24T06:10:03;9.10;99.90
20915;DHT22;10617;52.032;5.298;2023-04-24T06:14:05;9.10;99.90
20915;DHT22;10617;52.032;5.298;2023-04-24T06:18:07;9.20;99.90
20915;DHT22;10617;52.032;5.298;2023-04-24T06:22:09;9.20;99.90
20915;DHT22;10617;52.032;5.298;2023-04-24T06:26:11;9.20;99.90
20915;DHT22;10617;52.032;5.298;2023-04-24T06:30:13;9.20;99.90
20915;DHT22;10617;52.032;5.298;2023-04-24T06:34:15;9.20;99.90
20915;DHT22;10617;52.032;5.298;2023-04-24T06:38:16;9.20;99.90
20915;DHT22;10617;52.032;5.298;2023-04-24T06:42:18;9.20;99.90
20915;DHT22;10617;52.032;5.298;2023-04-24T06:46:22;9.20;99.90
20915;DHT22;10617;52.032;5.298;2023-04-24T06:50:25;9.10;99.90
20915;DHT22;10617;52.032;5.298;2023-04-24T06:54:26;9.10;99.90
20915;DHT22;10617;52.032;5.298;2023-04-24T06:58:28;9.00;99.90
20915;DHT22;10617;52.032;5.298;2023-04-24T07:02:31;9.00;99.90
20915;DHT22;10617;52.032;5.298;2023-04-24T07:06:33;8.90;99.90
20915;DHT22;10617;52.032;5.298;2023-04-24T07:10:35;8.80;99.90
20915;DHT22;10617;52.032;5.298;2023-04-24T07:14:37;8.80;99.90
20915;DHT22;10617;52.032;5.298;2023-04-24T07:18:39;8.70;99.90
20915;DHT22;10617;52.032;5.298;2023-04-24T07:22:41;8.70;99.90
20915;DHT22;10617;52.032;5.298;2023-04-24T07:26:42;8.70;99.90
20915;DHT22;10617;52.032;5.298;2023-04-24T07:30:44;8.70;99.90
20915;DHT22;10617;52.032;5.298;2023-04-24T07:34:46;8.70;99.90
20915;DHT22;10617;52.032;5.298;2023-04-24T07:38:48;8.70;99.90
20915;DHT22;10617;52.032;5.298;2023-04-24T07:42:50;8.70;99.90
20915;DHT22;10617;52.032;5.298;2023-04-24T07:46:52;8.70;99.90
20915;DHT22;10617;52.032;5.298;2023-04-24T07:50:54;8.70;99.90
20915;DHT22;10617;52.032;5.298;2023-04-24T07:54:55;8.80;99.90
20915;DHT22;10617;52.032;5.298;2023-04-24T07:58:59;8.80;99.90
20915;DHT22;10617;52.032;5.298;2023-04-24T08:03:02;8.80;99.90
20915;DHT22;10617;52.032;5.298;2023-04-24T08:07:04;8.80;99.90
20915;DHT22;10617;52.032;5.298;2023-04-24T08:11:06;8.80;99.90
20915;DHT22;10617;52.032;5.298;2023-04-24T08:15:07;8.80;99.90
20915;DHT22;10617;52.032;5.298;2023-04-24T08:19:09;8.80;99.90
20915;DHT22;10617;52.032;5.298;2023-04-24T08:23:11;8.80;99.90
20915;DHT22;10617;52.032;5.298;2023-04-24T08:27:12;8.70;99.90
20915;DHT22;10617;52.032;5.298;2023-04-24T08:31:14;8.70;99.90
20915;DHT22;10617;52.032;5.298;2023-04-24T08:35:16;8.70;99.90
20915;DHT22;10617;52.032;5.298;2023-04-24T08:39:17;8.70;99.90
20915;DHT22;10617;52.032;5.298;2023-04-24T08:43:20;8.70;99.90
20915;DHT22;10617;52.032;5.298;2023-04-24T08:47:23;8.60;99.90
20915;DHT22;10617;52.032;5.298;2023-04-24T08:51:26;8.60;99.90
20915;DHT22;10617;52.032;5.298;2023-04-24T08:55:27;8.70;99.90
20915;DHT22;10617;52.032;5.298;2023-04-24T08:59:31;8.70;99.90
20915;DHT22;10617;52.032;5.298;2023-04-24T09:03:32;8.80;99.90
20915;DHT22;10617;52.032;5.298;2023-04-24T09:07:34;8.90;99.90
20915;DHT22;10617;52.032;5.298;2023-04-24T09:11:37;8.90;99.90
20915;DHT22;10617;52.032;5.298;2023-04-24T09:15:39;9.00;99.90
20915;DHT22;10617;52.032;5.298;2023-04-24T09:19:41;9.10;99.90
20915;DHT22;10617;52.032;5.298;2023-04-24T09:23:43;9.10;99.90
20915;DHT22;10617;52.032;5.298;2023-04-24T09:27:45;9.20;99.90
20915;DHT22;10617;52.032;5.298;2023-04-24T09:31:47;9.30;99.90
20915;DHT22;10617;52.032;5.298;2023-04-24T09:35:49;9.30;99.90
20915;DHT22;10617;52.032;5.298;2023-04-24T09:44:14;9.60;99.90
20915;DHT22;10617;52.032;5.298;2023-04-24T09:48:16;9.70;99.90
20915;DHT22;10617;52.032;5.298;2023-04-24T09:52:18;9.80;99.90
20915;DHT22;10617;52.032;5.298;2023-04-24T09:56:19;9.90;99.90
20915;DHT22;10617;52.032;5.298;2023-04-24T10:04:24;9.80;99.90
20915;DHT22;10617;52.032;5.298;2023-04-24T10:08:26;9.80;99.90
20915;DHT22;10617;52.032;5.298;2023-04-24T10:12:34;9.80;99.90
20915;DHT22;10617;52.032;5.298;2023-04-24T10:16:36;9.70;99.90
20915;DHT22;10617;52.032;5.298;2023-04-24T10:20:38;9.70;99.90
20915;DHT22;10617;52.032;5.298;2023-04-24T10:24:40;9.50;99.90
20915;DHT22;10617;52.032;5.298;2023-04-24T10:28:46;9.50;99.90
20915;DHT22;10617;52.032;5.298;2023-04-24T10:32:48;9.40;99.90
20915;DHT22;10617;52.032;5.298;2023-04-24T10:36:50;9.40;99.90
20915;DHT22;10617;52.032;5.298;2023-04-24T10:40:57;9.50;99.90
20915;DHT22;10617;52.032;5.298;2023-04-24T10:44:59;9.60;99.90
20915;DHT22;10617;52.032;5.298;2023-04-24T10:49:04;9.70;99.90
20915;DHT22;10617;52.032;5.298;2023-04-24T10:53:12;9.60;99.90
20915;DHT22;10617;52.032;5.298;2023-04-24T11:01:28;9.70;99.90
20915;DHT22;10617;52.032;5.298;2023-04-24T11:05:48;10.00;99.90
20915;DHT22;10617;52.032;5.298;2023-04-24T11:09:57;10.40;99.90
20915;DHT22;10617;52.032;5.298;2023-04-24T11:18:01;11.40;99.90
20915;DHT22;10617;52.032;5.298;2023-04-24T11:22:13;11.20;99.90
20915;DHT22;10617;52.032;5.298;2023-04-24T11:26:19;10.80;99.90
20915;DHT22;10617;52.032;5.298;2023-04-24T11:30:22;10.50;99.90
20915;DHT22;10617;52.032;5.298;2023-04-24T11:34:24;10.30;99.90
20915;DHT22;10617;52.032;5.298;2023-04-24T11:38:26;10.20;99.90
20915;DHT22;10617;52.032;5.298;2023-04-24T11:42:28;10.00;99.90
20915;DHT22;10617;52.032;5.298;2023-04-24T11:46:30;9.80;99.90
20915;DHT22;10617;52.032;5.298;2023-04-24T11:50:32;9.80;99.90
20915;DHT22;10617;52.032;5.298;2023-04-24T11:54:34;10.10;99.90
20915;DHT22;10617;52.032;5.298;2023-04-24T11:58:36;10.40;99.90
20915;DHT22;10617;52.032;5.298;2023-04-24T12:02:38;10.80;99.90
20915;DHT22;10617;52.032;5.298;2023-04-24T12:06:58;10.90;99.90
20915;DHT22;10617;52.032;5.298;2023-04-24T12:11:00;10.80;99.90
20915;DHT22;10617;52.032;5.298;2023-04-24T12:15:06;10.70;99.90
20915;DHT22;10617;52.032;5.298;2023-04-24T12:19:07;10.60;99.90
20915;DHT22;10617;52.032;5.298;2023-04-24T12:23:09;10.70;99.90
20915;DHT22;10617;52.032;5.298;2023-04-24T12:27:19;10.80;99.90
20915;DHT22;10617;52.032;5.298;2023-04-24T12:31:21;10.90;99.90
20915;DHT22;10617;52.032;5.298;2023-04-24T12:35:23;11.00;99.90
20915;DHT22;10617;52.032;5.298;2023-04-24T12:39:25;10.90;99.90
20915;DHT22;10617;52.032;5.298;2023-04-24T12:43:28;10.80;99.90
20915;DHT22;10617;52.032;5.298;2023-04-24T12:47:30;10.70;99.90
20915;DHT22;10617;52.032;5.298;2023-04-24T12:51:31;10.60;99.90
20915;DHT22;10617;52.032;5.298;2023-04-24T12:55:33;10.50;99.90
20915;DHT22;10617;52.032;5.298;2023-04-24T12:59:35;10.60;99.90
20915;DHT22;10617;52.032;5.298;2023-04-24T13:03:36;10.90;99.90
20915;DHT22;10617;52.032;5.298;2023-04-24T13:07:38;11.00;99.90
20915;DHT22;10617;52.032;5.298;2023-04-24T13:11:40;11.00;99.90
20915;DHT22;10617;52.032;5.298;2023-04-24T13:15:42;10.90;99.90
20915;DHT22;10617;52.032;5.298;2023-04-24T13:19:43;10.90;99.90
20915;DHT22;10617;52.032;5.298;2023-04-24T13:23:46;11.20;99.90
20915;DHT22;10617;52.032;5.298;2023-04-24T13:27:47;11.50;99.90
20915;DHT22;10617;52.032;5.298;2023-04-24T13:31:49;12.00;99.90
20915;DHT22;10617;52.032;5.298;2023-04-24T13:35:51;12.10;99.90
20915;DHT22;10617;52.032;5.298;2023-04-24T13:39:53;12.00;99.90
20915;DHT22;10617;52.032;5.298;2023-04-24T13:43:55;11.70;99.90
20915;DHT22;10617;52.032;5.298;2023-04-24T13:47:57;11.90;99.90
20915;DHT22;10617;52.032;5.298;2023-04-24T13:51:58;12.40;99.90
20915;DHT22;10617;52.032;5.298;2023-04-24T13:56:00;12.90;99.90
20915;DHT22;10617;52.032;5.298;2023-04-24T14:00:02;13.00;99.90
20915;DHT22;10617;52.032;5.298;2023-04-24T14:04:05;12.80;99.90
20915;DHT22;10617;52.032;5.298;2023-04-24T14:08:07;12.70;99.90
20915;DHT22;10617;52.032;5.298;2023-04-24T14:12:08;12.70;99.90
20915;DHT22;10617;52.032;5.298;2023-04-24T14:16:10;12.90;99.90
20915;DHT22;10617;52.032;5.298;2023-04-24T14:20:14;12.80;99.90
20915;DHT22;10617;52.032;5.298;2023-04-24T14:24:15;12.80;99.90
20915;DHT22;10617;52.032;5.298;2023-04-24T14:28:18;12.50;99.90
20915;DHT22;10617;52.032;5.298;2023-04-24T14:32:19;12.40;99.90
20915;DHT22;10617;52.032;5.298;2023-04-24T14:36:21;12.50;99.90
20915;DHT22;10617;52.032;5.298;2023-04-24T14:40:23;12.50;99.90
20915;DHT22;10617;52.032;5.298;2023-04-24T14:44:44;12.40;99.90
20915;DHT22;10617;52.032;5.298;2023-04-24T14:48:46;12.10;99.90
20915;DHT22;10617;52.032;5.298;2023-04-24T14:52:48;11.90;99.90
20915;DHT22;10617;52.032;5.298;2023-04-24T14:56:50;11.60;99.90
20915;DHT22;10617;52.032;5.298;2023-04-24T15:00:52;11.50;99.90
20915;DHT22;10617;52.032;5.298;2023-04-24T15:04:55;11.60;99.90
20915;DHT22;10617;52.032;5.298;2023-04-24T15:08:58;11.90;99.90
20915;DHT22;10617;52.032;5.298;2023-04-24T15:12:59;12.10;99.90
20915;DHT22;10617;52.032;5.298;2023-04-24T15:17:01;12.40;99.90
20915;DHT22;10617;52.032;5.298;2023-04-24T15:21:03;12.70;99.90
20915;DHT22;10617;52.032;5.298;2023-04-24T15:25:05;12.70;99.90
20915;DHT22;10617;52.032;5.298;2023-04-24T15:29:07;12.70;99.90
20915;DHT22;10617;52.032;5.298;2023-04-24T15:33:08;12.50;99.90
20915;DHT22;10617;52.032;5.298;2023-04-24T15:37:10;12.30;99.90
20915;DHT22;10617;52.032;5.298;2023-04-24T15:41:12;12.20;99.90
20915;DHT22;10617;52.032;5.298;2023-04-24T15:45:14;12.40;99.90
20915;DHT22;10617;52.032;5.298;2023-04-24T15:49:16;12.30;99.90
20915;DHT22;10617;52.032;5.298;2023-04-24T15:53:17;12.10;99.90
20915;DHT22;10617;52.032;5.298;2023-04-24T15:57:22;12.00;99.90
20915;DHT22;10617;52.032;5.298;2023-04-24T16:01:24;12.50;99.90
20915;DHT22;10617;52.032;5.298;2023-04-24T16:05:26;13.00;99.90
20915;DHT22;10617;52.032;5.298;2023-04-24T16:09:27;13.00;99.90
20915;DHT22;10617;52.032;5.298;2023-04-24T16:13:29;12.80;99.90
20915;DHT22;10617;52.032;5.298;2023-04-24T16:17:32;12.80;99.90
20915;DHT22;10617;52.032;5.298;2023-04-24T16:21:34;12.60;99.90
20915;DHT22;10617;52.032;5.298;2023-04-24T16:25:35;12.40;99.90
20915;DHT22;10617;52.032;5.298;2023-04-24T16:29:37;12.20;99.90
20915;DHT22;10617;52.032;5.298;2023-04-24T16:33:38;12.50;99.90
20915;DHT22;10617;52.032;5.298;2023-04-24T16:37:40;12.90;99.90
20915;DHT22;10617;52.032;5.298;2023-04-24T16:41:42;13.20;99.90
20915;DHT22;10617;52.032;5.298;2023-04-24T16:45:44;13.70;99.90
20915;DHT22;10617;52.032;5.298;2023-04-24T16:49:47;14.00;99.90
20915;DHT22;10617;52.032;5.298;2023-04-24T16:53:49;13.50;99.90
20915;DHT22;10617;52.032;5.298;2023-04-24T16:57:50;13.30;99.90
20915;DHT22;10617;52.032;5.298;2023-04-24T17:01:52;13.00;99.90
20915;DHT22;10617;52.032;5.298;2023-04-24T17:05:54;12.90;99.90
20915;DHT22;10617;52.032;5.298;2023-04-24T17:09:55;13.30;99.90
20915;DHT22;10617;52.032;5.298;2023-04-24T17:13:57;13.30;99.90
20915;DHT22;10617;52.032;5.298;2023-04-24T17:18:01;12.90;99.90
20915;DHT22;10617;52.032;5.298;2023-04-24T17:22:03;12.50;99.90
20915;DHT22;10617;52.032;5.298;2023-04-24T17:26:06;12.10;99.90
20915;DHT22;10617;52.032;5.298;2023-04-24T17:30:08;11.70;99.90
20915;DHT22;10617;52.032;5.298;2023-04-24T17:34:10;11.40;99.90
20915;DHT22;10617;52.032;5.298;2023-04-24T17:38:11;11.20;99.90
20915;DHT22;10617;52.032;5.298;2023-04-24T17:42:13;11.00;99.90
20915;DHT22;10617;52.032;5.298;2023-04-24T17:46:15;10.90;99.90
20915;DHT22;10617;52.032;5.298;2023-04-24T17:50:16;10.80;99.90
20915;DHT22;10617;52.032;5.298;2023-04-24T17:54:19;10.70;99.90
20915;DHT22;10617;52.032;5.298;2023-04-24T17:58:20;10.60;99.90
20915;DHT22;10617;52.032;5.298;2023-04-24T18:02:22;10.50;99.90
20915;DHT22;10617;52.032;5.298;2023-04-24T18:06:24;10.50;99.90
20915;DHT22;10617;52.032;5.298;2023-04-24T18:10:26;10.40;99.90
20915;DHT22;10617;52.032;5.298;2023-04-24T18:14:28;10.30;99.90
20915;DHT22;10617;52.032;5.298;2023-04-24T18:18:29;10.20;99.90
20915;DHT22;10617;52.032;5.298;2023-04-24T18:22:31;10.20;99.90
20915;DHT22;10617;52.032;5.298;2023-04-24T18:26:33;10.20;99.90
20915;DHT22;10617;52.032;5.298;2023-04-24T18:30:34;10.10;99.90
20915;DHT22;10617;52.032;5.298;2023-04-24T18:34:36;10.10;99.90
20915;DHT22;10617;52.032;5.298;2023-04-24T18:38:37;10.00;99.90
20915;DHT22;10617;52.032;5.298;2023-04-24T18:42:40;9.90;99.90
20915;DHT22;10617;52.032;5.298;2023-04-24T18:46:42;9.90;99.90
20915;DHT22;10617;52.032;5.298;2023-04-24T18:50:43;9.80;99.90
20915;DHT22;10617;52.032;5.298;2023-04-24T18:54:45;9.80;99.90
20915;DHT22;10617;52.032;5.298;2023-04-24T18:58:48;9.70;99.90
20915;DHT22;10617;52.032;5.298;2023-04-24T19:02:50;9.70;99.90
20915;DHT22;10617;52.032;5.298;2023-04-24T19:06:52;9.70;99.90
20915;DHT22;10617;52.032;5.298;2023-04-24T19:10:54;9.60;99.90
20915;DHT22;10617;52.032;5.298;2023-04-24T19:14:55;9.60;99.90
20915;DHT22;10617;52.032;5.298;2023-04-24T19:18:58;9.50;99.90
20915;DHT22;10617;52.032;5.298;2023-04-24T19:23:00;9.50;99.90
20915;DHT22;10617;52.032;5.298;2023-04-24T19:27:02;9.50;99.90
20915;DHT22;10617;52.032;5.298;2023-04-24T19:31:03;9.40;99.90
20915;DHT22;10617;52.032;5.298;2023-04-24T19:35:05;9.30;99.90
20915;DHT22;10617;52.032;5.298;2023-04-24T19:39:07;9.30;99.90
20915;DHT22;10617;52.032;5.298;2023-04-24T19:43:08;9.30;99.90
20915;DHT22;10617;52.032;5.298;2023-04-24T19:47:10;9.30;99.90
20915;DHT22;10617;52.032;5.298;2023-04-24T19:51:13;9.20;99.90
20915;DHT22;10617;52.032;5.298;2023-04-24T19:55:15;9.20;99.90
20915;DHT22;10617;52.032;5.298;2023-04-24T19:59:16;9.20;99.90
20915;DHT22;10617;52.032;5.298;2023-04-24T20:03:18;9.10;99.90
20915;DHT22;10617;52.032;5.298;2023-04-24T20:07:33;9.10;99.90
20915;DHT22;10617;52.032;5.298;2023-04-24T20:11:34;9.10;99.90
20915;DHT22;10617;52.032;5.298;2023-04-24T20:15:36;9.10;99.90
20915;DHT22;10617;52.032;5.298;2023-04-24T20:19:38;9.10;99.90
20915;DHT22;10617;52.032;5.298;2023-04-24T20:23:41;9.00;99.90
20915;DHT22;10617;52.032;5.298;2023-04-24T20:27:43;9.00;99.90
20915;DHT22;10617;52.032;5.298;2023-04-24T20:31:44;8.90;99.90
20915;DHT22;10617;52.032;5.298;2023-04-24T20:35:46;8.80;99.90
20915;DHT22;10617;52.032;5.298;2023-04-24T20:39:49;8.80;99.90
20915;DHT22;10617;52.032;5.298;2023-04-24T20:43:51;8.70;99.90
20915;DHT22;10617;52.032;5.298;2023-04-24T20:47:53;8.60;99.90
20915;DHT22;10617;52.032;5.298;2023-04-24T20:51:54;8.60;99.90
20915;DHT22;10617;52.032;5.298;2023-04-24T20:55:56;8.60;99.90
20915;DHT22;10617;52.032;5.298;2023-04-24T20:59:57;8.60;99.90
20915;DHT22;10617;52.032;5.298;2023-04-24T21:03:59;8.60;99.90
20915;DHT22;10617;52.032;5.298;2023-04-24T21:08:01;8.60;99.90
20915;DHT22;10617;52.032;5.298;2023-04-24T21:12:02;8.60;99.90
20915;DHT22;10617;52.032;5.298;2023-04-24T21:16:04;8.50;99.90
20915;DHT22;10617;52.032;5.298;2023-04-24T21:20:06;8.60;99.90
20915;DHT22;10617;52.032;5.298;2023-04-24T21:24:08;8.60;99.90
20915;DHT22;10617;52.032;5.298;2023-04-24T21:28:10;8.50;99.90
20915;DHT22;10617;52.032;5.298;2023-04-24T21:32:11;8.50;99.90
20915;DHT22;10617;52.032;5.298;2023-04-24T21:36:13;8.50;99.90
20915;DHT22;10617;52.032;5.298;2023-04-24T21:40:15;8.40;99.90
20915;DHT22;10617;52.032;5.298;2023-04-24T21:53:43;8.30;99.90
20915;DHT22;10617;52.032;5.298;2023-04-24T21:57:45;8.30;99.90
20915;DHT22;10617;52.032;5.298;2023-04-24T22:01:47;8.40;99.90
20915;DHT22;10617;52.032;5.298;2023-04-24T22:05:48;8.40;99.90
20915;DHT22;10617;52.032;5.298;2023-04-24T22:09:50;8.40;99.90
20915;DHT22;10617;52.032;5.298;2023-04-24T22:13:52;8.40;99.90
20915;DHT22;10617;52.032;5.298;2023-04-24T22:17:54;8.40;99.90
20915;DHT22;10617;52.032;5.298;2023-04-24T22:21:58;8.30;99.90
20915;DHT22;10617;52.032;5.298;2023-04-24T22:25:59;8.30;99.90
20915;DHT22;10617;52.032;5.298;2023-04-24T22:30:01;8.20;99.90
20915;DHT22;10617;52.032;5.298;2023-04-24T22:34:03;8.10;99.90
20915;DHT22;10617;52.032;5.298;2023-04-24T22:38:04;8.00;99.90
20915;DHT22;10617;52.032;5.298;2023-04-24T22:42:06;8.00;99.90
20915;DHT22;10617;52.032;5.298;2023-04-24T22:56:15;7.70;99.90
20915;DHT22;10617;52.032;5.298;2023-04-24T23:00:17;7.60;99.90
20915;DHT22;10617;52.032;5.298;2023-04-24T23:04:18;7.60;99.90
20915;DHT22;10617;52.032;5.298;2023-04-24T23:18:28;7.40;99.90
20915;DHT22;10617;52.032;5.298;2023-04-24T23:47:17;7.00;99.90
20915;DHT22;10617;52.032;5.298;2023-04-24T23:51:18;7.00;99.90
20915;DHT22;10617;52.032;5.298;2023-04-24T23:55:20;7.00;99.90
20915;DHT22;10617;52.032;5.298;2023-04-24T23:59:22;6.90;99.90
